Time;durP1;ratioP1;P1;durP2;ratioP2;P2;SDS_P1;SDS_P2;PMS_P1;PMS_P2;Temp;Humidity;BMP_temperature;BMP_pressure;BME280_temperature;BME280_humidity;BME280_pressure;Samples;Min_cycle;Max_cycle;Signal;HPM_P1;HPM_P2
2022/11/17 00:00:28;;;;;;;17.45;15.05;;;;;;;;;;4803044;29;20054;-71
2022/11/17 00:02:56;;;;;;;17.67;15.48;;;;;;;;;;4801418;29;20042;-71
2022/11/17 00:05:23;;;;;;;19.65;16.65;;;;;;;;;;4800743;29;20104;-71
2022/11/17 00:07:51;;;;;;;19.15;17.38;;;;;;;;;;4800822;29;20074;-70
2022/11/17 00:10:19;;;;;;;19.20;17.02;;;;;;;;;;4801471;29;20172;-70
2022/11/17 00:15:32;;;;;;;20.10;15.32;;;;;;;;;;4804385;29;20043;-70
2022/11/17 00:23:46;;;;;;;17.58;15.30;;;;;;;;;;4804716;29;20061;-71
2022/11/17 00:26:15;;;;;;;18.00;15.63;;;;;;;;;;4806622;29;20050;-70
2022/11/17 00:28:43;;;;;;;18.48;16.58;;;;;;;;;;4798756;29;20047;-70
2022/11/17 00:34:06;;;;;;;17.95;16.10;;;;;;;;;;4810908;29;20046;-70
2022/11/17 00:36:33;;;;;;;17.10;15.48;;;;;;;;;;4803285;29;20539;-70
2022/11/17 00:39:01;;;;;;;17.88;16.10;;;;;;;;;;4801468;29;20047;-70
2022/11/17 00:41:28;;;;;;;18.83;16.95;;;;;;;;;;4801964;29;20057;-70
2022/11/17 00:43:55;;;;;;;19.00;16.95;;;;;;;;;;4800469;29;20564;-70
2022/11/17 00:46:23;;;;;;;18.88;16.75;;;;;;;;;;4784076;29;20474;-70
2022/11/17 00:48:50;;;;;;;19.35;17.35;;;;;;;;;;4780902;29;20055;-70
2022/11/17 00:51:18;;;;;;;19.40;17.48;;;;;;;;;;4799043;29;20043;-70
2022/11/17 00:53:45;;;;;;;22.05;19.33;;;;;;;;;;4808564;29;20201;-70
2022/11/17 00:56:13;;;;;;;20.40;17.80;;;;;;;;;;4781567;29;20038;-71
2022/11/17 00:58:40;;;;;;;19.77;17.25;;;;;;;;;;4808149;29;20067;-70
2022/11/17 01:01:08;;;;;;;19.67;16.88;;;;;;;;;;4810362;29;20150;-70
2022/11/17 01:03:35;;;;;;;19.58;17.67;;;;;;;;;;4798347;29;20058;-70
2022/11/17 01:06:08;;;;;;;19.60;17.13;;;;;;;;;;4800365;29;20630;-69
2022/11/17 01:08:35;;;;;;;;;;;;;;;;;;4806145;29;20112;-70
2022/11/17 01:11:13;;;;;;;12.38;10.15;;;;;;;;;;4806520;29;19929;-70
2022/11/17 01:13:41;;;;;;;15.98;13.90;;;;;;;;;;4802337;29;20108;-70
2022/11/17 01:16:10;;;;;;;16.63;13.45;;;;;;;;;;4799538;29;20362;-71
2022/11/17 01:18:37;;;;;;;18.13;14.10;;;;;;;;;;4807315;29;20181;-71
2022/11/17 01:21:18;;;;;;;18.20;16.25;;;;;;;;;;4799288;29;20116;-70
2022/11/17 01:23:47;;;;;;;18.23;14.95;;;;;;;;;;4795676;29;20063;-70
2022/11/17 01:26:15;;;;;;;17.20;14.95;;;;;;;;;;4813260;29;20463;-70
2022/11/17 01:28:43;;;;;;;19.10;16.58;;;;;;;;;;4806827;29;20472;-70
2022/11/17 01:31:12;;;;;;;20.58;17.02;;;;;;;;;;4803386;29;20050;-70
2022/11/17 01:33:39;;;;;;;20.77;18.35;;;;;;;;;;4801083;29;20503;-70
2022/11/17 01:36:12;;;;;;;21.00;17.58;;;;;;;;;;4788984;29;20112;-70
2022/11/17 01:38:39;;;;;;;19.85;17.15;;;;;;;;;;4797496;29;20296;-70
2022/11/17 01:41:11;;;;;;;26.13;18.42;;;;;;;;;;4803752;29;20043;-70
2022/11/17 01:43:42;;;;;;;18.88;16.90;;;;;;;;;;4800698;29;20073;-70
2022/11/17 01:46:24;;;;;;;17.98;15.98;;;;;;;;;;4795657;29;20058;-70
2022/11/17 01:48:54;;;;;;;16.88;14.88;;;;;;;;;;4797474;29;20046;-70
2022/11/17 01:51:21;;;;;;;19.65;15.23;;;;;;;;;;4779168;29;20043;-70
2022/11/17 01:53:50;;;;;;;16.55;14.65;;;;;;;;;;4806652;29;20103;-70
2022/11/17 01:56:20;;;;;;;17.83;15.70;;;;;;;;;;4793649;29;20563;-70
2022/11/17 01:58:51;;;;;;;17.42;15.35;;;;;;;;;;4800893;29;20567;-70
2022/11/17 02:01:18;;;;;;;20.60;18.02;;;;;;;;;;4796294;29;20149;-70
2022/11/17 02:03:47;;;;;;;19.52;16.45;;;;;;;;;;4785630;29;20427;-70
2022/11/17 02:06:15;;;;;;;22.15;19.60;;;;;;;;;;4802877;29;20055;-69
2022/11/17 02:08:45;;;;;;;23.58;18.52;;;;;;;;;;4784159;29;20053;-70
2022/11/17 02:11:13;;;;;;;17.15;14.88;;;;;;;;;;4773868;29;20606;-70
2022/11/17 02:13:41;;;;;;;22.38;18.85;;;;;;;;;;4799082;29;20050;-70
2022/11/17 02:16:12;;;;;;;20.92;17.67;;;;;;;;;;4799459;29;20039;-70
2022/11/17 02:18:43;;;;;;;25.05;17.52;;;;;;;;;;4795739;29;20038;-70
2022/11/17 02:21:25;;;;;;;27.92;17.98;;;;;;;;;;4798232;29;20145;-69
2022/11/17 02:24:03;;;;;;;19.90;15.23;;;;;;;;;;4798956;29;20124;-69
2022/11/17 02:26:37;;;;;;;19.38;14.85;;;;;;;;;;4788821;29;20058;-69
2022/11/17 02:29:13;;;;;;;19.45;17.35;;;;;;;;;;4786965;29;20435;-70
2022/11/17 02:31:50;;;;;;;21.27;15.95;;;;;;;;;;4793726;29;20062;-69
2022/11/17 02:34:20;;;;;;;21.75;17.67;;;;;;;;;;4782524;30;20142;-70
2022/11/17 02:36:56;;;;;;;24.55;18.98;;;;;;;;;;4775016;29;20420;-69
2022/11/17 02:39:37;;;;;;;23.95;17.88;;;;;;;;;;4798751;29;20085;-70
2022/11/17 02:42:08;;;;;;;21.10;18.33;;;;;;;;;;4799733;29;20138;-70
2022/11/17 02:44:40;;;;;;;19.65;16.45;;;;;;;;;;4800424;29;20385;-70
2022/11/17 02:47:08;;;;;;;;;;;;;;;;;;4793635;29;20102;-70
2022/11/17 02:49:36;;;;;;;14.50;10.55;;;;;;;;;;4790954;29;19987;-70
2022/11/17 02:52:04;;;;;;;17.58;12.23;;;;;;;;;;4793364;29;20049;-70
2022/11/17 02:54:32;;;;;;;16.70;13.38;;;;;;;;;;4799227;29;20043;-70
2022/11/17 02:56:59;;;;;;;16.15;14.20;;;;;;;;;;4779534;29;20066;-70
2022/11/17 03:03:17;;;;;;;16.02;12.52;;;;;;;;;;4804920;29;20081;-81
2022/11/17 03:06:42;;;;;;;;;;;;;;;;;;;;;
2022/11/17 03:15:05;;;;;;;;;;;;;;;;;;;;;
2022/11/17 03:19:17;;;;;;;;;;;;;;;;;;;;;
2022/11/17 03:22:46;;;;;;;15.32;9.90;;;;;;;;;;4824654;29;20086;-81
2022/11/17 03:26:24;;;;;;;17.40;10.65;;;;;;;;;;4813637;29;20046;-80
2022/11/17 03:30:18;;;;;;;13.52;9.60;;;;;;;;;;4795297;29;20058;-81
2022/11/17 03:34:31;;;;;;;13.32;9.50;;;;;;;;;;4815105;29;20049;-82
2022/11/17 03:37:28;;;;;;;10.73;9.13;;;;;;;;;;4782506;29;20071;-80
2022/11/17 03:41:14;;;;;;;11.63;9.23;;;;;;;;;;4829302;29;20093;-80
2022/11/17 03:48:34;;;;;;;14.30;10.52;;;;;;;;;;4819808;29;20046;-81
2022/11/17 03:59:19;;;;;;;11.55;9.20;;;;;;;;;;4795399;29;20081;-81
2022/11/17 04:03:16;;;;;;;14.05;9.50;;;;;;;;;;4825294;29;20053;-81
2022/11/17 04:07:14;;;;;;;8.27;7.45;;;;;;;;;;4834562;29;20400;-81
2022/11/17 04:21:31;;;;;;;7.68;6.97;;;;;;;;;;4820246;24;20392;-76
2022/11/17 04:23:59;;;;;;;9.43;8.52;;;;;;;;;;4820327;29;20054;-75
2022/11/17 04:29:12;;;;;;;11.75;10.57;;;;;;;;;;4821559;29;20071;-76
2022/11/17 04:31:39;;;;;;;13.68;12.45;;;;;;;;;;4809267;29;20049;-76
2022/11/17 04:34:07;;;;;;;13.30;12.05;;;;;;;;;;4821077;29;20050;-76
2022/11/17 04:36:36;;;;;;;16.23;14.80;;;;;;;;;;4806979;29;20289;-76
2022/11/17 04:39:04;;;;;;;15.10;13.70;;;;;;;;;;4823950;29;20046;-75
2022/11/17 04:44:17;;;;;;;14.15;12.82;;;;;;;;;;4804134;29;20052;-75
2022/11/17 04:46:45;;;;;;;15.32;13.93;;;;;;;;;;4800687;29;20046;-76
2022/11/17 04:49:13;;;;;;;12.93;11.80;;;;;;;;;;4822538;29;20050;-76
2022/11/17 04:51:40;;;;;;;15.30;14.15;;;;;;;;;;4818395;29;20126;-76
2022/11/17 04:54:09;;;;;;;14.10;12.77;;;;;;;;;;4820303;29;20515;-76
2022/11/17 04:56:37;;;;;;;18.50;16.75;;;;;;;;;;4830275;29;20049;-76
2022/11/17 04:59:04;;;;;;;15.35;13.48;;;;;;;;;;4822333;29;20050;-76
2022/11/17 05:01:32;;;;;;;16.27;14.85;;;;;;;;;;4824503;29;20047;-76
2022/11/17 05:04:00;;;;;;;18.13;16.55;;;;;;;;;;4823853;29;20125;-76
2022/11/17 05:06:38;;;;;;;19.80;17.98;;;;;;;;;;4822806;29;20460;-76
2022/11/17 05:09:07;;;;;;;17.50;15.85;;;;;;;;;;4819427;29;20046;-75
2022/11/17 05:14:21;;;;;;;12.63;11.63;;;;;;;;;;4821255;29;20069;-76
2022/11/17 05:17:03;;;;;;;17.83;15.45;;;;;;;;;;4800470;29;20570;-75
2022/11/17 05:19:36;;;;;;;15.95;14.45;;;;;;;;;;4821653;29;20111;-76
2022/11/17 05:23:52;;;;;;;14.80;13.45;;;;;;;;;;4823739;29;20042;-76
2022/11/17 05:24:52;;;;;;;12.88;11.68;;;;;;;;;;4819114;29;20141;-76
2022/11/17 05:27:19;;;;;;;17.30;15.63;;;;;;;;;;4817609;29;20086;-75
2022/11/17 05:29:47;;;;;;;12.68;11.50;;;;;;;;;;4820761;29;20054;-75
2022/11/17 05:32:14;;;;;;;19.08;17.35;;;;;;;;;;4812622;29;20196;-76
2022/11/17 05:34:41;;;;;;;15.73;14.23;;;;;;;;;;4814640;29;20046;-75
2022/11/17 05:37:08;;;;;;;16.33;14.80;;;;;;;;;;4810312;29;20043;-75
2022/11/17 05:39:36;;;;;;;16.90;15.35;;;;;;;;;;4797892;29;20050;-75
2022/11/17 05:42:04;;;;;;;21.33;19.48;;;;;;;;;;4819154;29;20053;-74
2022/11/17 05:44:31;;;;;;;18.35;16.50;;;;;;;;;;4818786;29;20099;-75
2022/11/17 05:46:58;;;;;;;18.52;16.77;;;;;;;;;;4818478;29;20058;-75
2022/11/17 05:49:26;;;;;;;17.73;16.05;;;;;;;;;;4818571;29;20051;-75
2022/11/17 05:51:53;;;;;;;16.05;14.65;;;;;;;;;;4785137;29;20046;-75
2022/11/17 05:54:20;;;;;;;18.60;16.70;;;;;;;;;;4803919;29;20054;-76
2022/11/17 05:56:58;;;;;;;17.98;16.25;;;;;;;;;;4800685;29;20404;-77
2022/11/17 05:59:38;;;;;;;16.02;14.55;;;;;;;;;;4828095;29;20087;-76
2022/11/17 06:02:07;;;;;;;16.48;14.85;;;;;;;;;;4816565;29;20057;-76
2022/11/17 06:04:35;;;;;;;13.20;11.98;;;;;;;;;;4817617;29;20053;-76
2022/11/17 06:07:02;;;;;;;16.77;15.07;;;;;;;;;;4803270;29;20061;-76
2022/11/17 06:09:37;;;;;;;12.15;11.10;;;;;;;;;;4830060;29;20248;-76
2022/11/17 06:12:04;;;;;;;16.33;14.68;;;;;;;;;;4824992;29;20050;-74
2022/11/17 06:14:37;;;;;;;16.73;15.15;;;;;;;;;;4805799;29;20600;-75
2022/11/17 06:17:16;;;;;;;16.05;14.43;;;;;;;;;;4800388;29;20056;-76
2022/11/17 06:19:51;;;;;;;19.77;17.92;;;;;;;;;;4811318;29;20070;-76
2022/11/17 06:22:18;;;;;;;17.00;15.48;;;;;;;;;;4793295;29;20063;-75
2022/11/17 06:24:46;;;;;;;18.27;16.50;;;;;;;;;;4807903;29;20043;-76
2022/11/17 06:27:14;;;;;;;17.05;15.52;;;;;;;;;;4810493;29;20046;-76
2022/11/17 06:29:42;;;;;;;13.07;11.90;;;;;;;;;;4787741;29;20054;-76
2022/11/17 06:32:15;;;;;;;16.05;14.70;;;;;;;;;;4793119;29;20055;-75
2022/11/17 06:34:43;;;;;;;12.75;11.57;;;;;;;;;;4809060;29;20054;-75
2022/11/17 06:37:10;;;;;;;13.30;12.18;;;;;;;;;;4804237;29;20046;-75
2022/11/17 06:39:38;;;;;;;17.63;16.13;;;;;;;;;;4787426;29;20046;-75
2022/11/17 06:42:05;;;;;;;15.15;13.93;;;;;;;;;;4804038;29;20522;-75
2022/11/17 06:44:32;;;;;;;14.63;13.52;;;;;;;;;;4809237;29;20044;-75
2022/11/17 06:47:00;;;;;;;16.38;15.02;;;;;;;;;;4800707;29;20050;-75
2022/11/17 06:49:27;;;;;;;11.88;10.98;;;;;;;;;;4801218;29;20066;-75
2022/11/17 06:51:55;;;;;;;15.13;13.60;;;;;;;;;;4805150;29;20467;-75
2022/11/17 06:54:22;;;;;;;15.68;14.38;;;;;;;;;;4815125;29;20114;-75
2022/11/17 06:56:51;;;;;;;14.18;13.05;;;;;;;;;;4799052;29;20053;-75
2022/11/17 06:59:18;;;;;;;14.05;13.07;;;;;;;;;;4813144;29;20130;-75
2022/11/17 07:01:46;;;;;;;15.90;14.65;;;;;;;;;;4801770;29;20628;-76
2022/11/17 07:04:13;;;;;;;15.43;14.27;;;;;;;;;;4807173;29;20544;-75
2022/11/17 07:06:40;;;;;;;16.85;15.55;;;;;;;;;;4805281;29;20043;-75
2022/11/17 07:09:08;;;;;;;17.90;16.27;;;;;;;;;;4794121;29;20344;-76
2022/11/17 07:11:35;;;;;;;17.85;16.42;;;;;;;;;;4804151;29;20054;-75
2022/11/17 07:14:03;;;;;;;18.85;17.05;;;;;;;;;;4814284;29;20046;-75
2022/11/17 07:16:31;;;;;;;14.40;13.23;;;;;;;;;;4785572;29;20079;-76
2022/11/17 07:19:02;;;;;;;17.63;16.23;;;;;;;;;;4806201;29;20047;-76
2022/11/17 07:21:29;;;;;;;15.10;13.77;;;;;;;;;;4803722;29;20065;-75
2022/11/17 07:23:56;;;;;;;17.63;16.33;;;;;;;;;;4810610;29;20054;-75
2022/11/17 07:26:24;;;;;;;15.95;14.75;;;;;;;;;;4809699;29;20157;-76
2022/11/17 07:28:51;;;;;;;18.58;17.13;;;;;;;;;;4814295;29;20042;-76
2022/11/17 07:31:18;;;;;;;14.82;13.70;;;;;;;;;;4794054;29;20492;-76
2022/11/17 07:33:46;;;;;;;18.08;16.67;;;;;;;;;;4796650;29;20054;-75
2022/11/17 07:36:14;;;;;;;19.08;17.70;;;;;;;;;;4823678;29;20526;-76
2022/11/17 07:38:41;;;;;;;15.77;14.60;;;;;;;;;;4819519;29;20587;-76
2022/11/17 07:41:09;;;;;;;17.25;15.93;;;;;;;;;;4816286;29;20049;-75
2022/11/17 07:43:37;;;;;;;19.10;17.73;;;;;;;;;;4811794;29;20046;-74
2022/11/17 07:46:05;;;;;;;16.10;14.98;;;;;;;;;;4793376;29;20046;-75
2022/11/17 07:48:32;;;;;;;17.63;16.25;;;;;;;;;;4814963;29;20155;-76
2022/11/17 07:51:01;;;;;;;16.67;15.20;;;;;;;;;;4809834;29;20061;-76
2022/11/17 07:53:31;;;;;;;17.40;16.10;;;;;;;;;;4797468;29;20510;-76
2022/11/17 07:56:02;;;;;;;13.05;12.00;;;;;;;;;;4807489;29;20153;-76
2022/11/17 07:58:30;;;;;;;16.50;14.90;;;;;;;;;;4804847;29;20074;-76
2022/11/17 08:00:57;;;;;;;17.40;16.20;;;;;;;;;;4816579;29;20054;-76
2022/11/17 08:03:25;;;;;;;16.88;15.57;;;;;;;;;;4810020;29;20063;-76
2022/11/17 08:05:53;;;;;;;17.60;16.10;;;;;;;;;;4810048;29;20046;-76
2022/11/17 08:08:20;;;;;;;16.45;15.25;;;;;;;;;;4802472;29;20066;-75
2022/11/17 08:10:48;;;;;;;17.15;15.90;;;;;;;;;;4790207;29;20086;-76
2022/11/17 08:13:15;;;;;;;17.92;16.55;;;;;;;;;;4805289;29;20471;-76
2022/11/17 08:15:43;;;;;;;18.42;16.98;;;;;;;;;;4816199;29;20544;-76
2022/11/17 08:18:10;;;;;;;24.13;22.13;;;;;;;;;;4814601;29;20503;-76
2022/11/17 08:20:38;;;;;;;18.92;17.45;;;;;;;;;;4793404;29;20042;-76
2022/11/17 08:23:05;;;;;;;18.27;16.92;;;;;;;;;;4805309;29;20069;-76
2022/11/17 08:25:32;;;;;;;19.55;18.05;;;;;;;;;;4810570;29;20110;-75
2022/11/17 08:28:02;;;;;;;19.15;17.67;;;;;;;;;;4820833;29;20051;-76
2022/11/17 08:30:33;;;;;;;17.90;16.60;;;;;;;;;;4804446;29;20126;-76
2022/11/17 08:33:01;;;;;;;23.13;21.50;;;;;;;;;;4816315;29;20042;-76
2022/11/17 08:35:28;;;;;;;18.38;16.92;;;;;;;;;;4807912;29;20062;-76
2022/11/17 08:38:03;;;;;;;20.27;18.80;;;;;;;;;;4817339;29;20043;-75
2022/11/17 08:40:30;;;;;;;17.92;16.60;;;;;;;;;;4796031;29;20052;-75
2022/11/17 08:42:58;;;;;;;20.75;19.20;;;;;;;;;;4818383;29;20051;-75
2022/11/17 08:45:28;;;;;;;18.98;17.58;;;;;;;;;;4797944;29;20840;-75
2022/11/17 08:47:55;;;;;;;20.95;19.38;;;;;;;;;;4821013;29;20057;-76
2022/11/17 08:50:22;;;;;;;17.77;16.48;;;;;;;;;;4805717;29;20069;-75
2022/11/17 08:52:51;;;;;;;19.95;18.48;;;;;;;;;;4804857;29;20079;-76
2022/11/17 08:55:18;;;;;;;17.70;16.30;;;;;;;;;;4804832;29;20554;-76
2022/11/17 08:57:46;;;;;;;22.83;21.23;;;;;;;;;;4819331;29;20491;-76
2022/11/17 09:00:14;;;;;;;19.58;18.05;;;;;;;;;;4832338;24;20093;-70
2022/11/17 09:02:41;;;;;;;21.30;19.42;;;;;;;;;;4813510;29;20075;-71
2022/11/17 09:05:08;;;;;;;18.48;16.80;;;;;;;;;;4837572;29;20106;-70
2022/11/17 09:07:36;;;;;;;18.48;17.13;;;;;;;;;;4829124;29;20047;-71
2022/11/17 09:10:04;;;;;;;23.77;22.00;;;;;;;;;;4819829;29;20058;-70
2022/11/17 09:12:31;;;;;;;27.23;25.10;;;;;;;;;;4802730;29;20054;-72
2022/11/17 09:14:59;;;;;;;20.60;18.85;;;;;;;;;;4819765;29;20050;-70
2022/11/17 09:17:26;;;;;;;21.63;19.75;;;;;;;;;;4819324;29;20420;-72
2022/11/17 09:19:53;;;;;;;19.67;17.95;;;;;;;;;;4819995;29;20110;-70
2022/11/17 09:22:21;;;;;;;22.42;20.35;;;;;;;;;;4816485;29;20043;-71
2022/11/17 09:24:48;;;;;;;22.33;20.63;;;;;;;;;;4814925;29;20042;-70
2022/11/17 09:27:15;;;;;;;22.63;20.60;;;;;;;;;;4792587;29;20047;-71
2022/11/17 09:29:43;;;;;;;23.63;21.73;;;;;;;;;;4811138;29;20054;-71
2022/11/17 09:32:10;;;;;;;22.65;20.58;;;;;;;;;;4818988;29;20128;-71
2022/11/17 09:34:37;;;;;;;22.60;20.02;;;;;;;;;;4818845;29;20065;-71
2022/11/17 09:37:04;;;;;;;23.10;20.75;;;;;;;;;;4817676;29;20046;-71
2022/11/17 09:39:32;;;;;;;23.55;21.33;;;;;;;;;;4814755;29;20103;-71
2022/11/17 09:42:00;;;;;;;27.63;25.23;;;;;;;;;;4817434;29;20046;-71
2022/11/17 09:44:30;;;;;;;23.70;21.50;;;;;;;;;;4819125;29;20058;-71
2022/11/17 09:47:10;;;;;;;22.70;20.67;;;;;;;;;;4818802;29;20047;-71
2022/11/17 09:49:40;;;;;;;23.08;21.05;;;;;;;;;;4814413;29;20054;-71
2022/11/17 09:52:18;;;;;;;29.23;26.42;;;;;;;;;;4802513;29;20051;-72
2022/11/17 09:54:51;;;;;;;32.95;29.85;;;;;;;;;;4794732;29;20113;-71
2022/11/17 09:57:21;;;;;;;29.75;26.75;;;;;;;;;;4816176;29;20054;-71
2022/11/17 09:59:51;;;;;;;24.15;21.85;;;;;;;;;;4818934;29;20050;-71
2022/11/17 10:02:19;;;;;;;24.83;22.55;;;;;;;;;;4818182;29;20103;-71
2022/11/17 10:04:47;;;;;;;37.35;34.03;;;;;;;;;;4807631;29;20431;-71
2022/11/17 10:07:14;;;;;;;36.42;33.70;;;;;;;;;;4817935;29;20052;-72
2022/11/17 10:09:43;;;;;;;28.85;26.35;;;;;;;;;;4818824;29;20054;-70
2022/11/17 10:12:15;;;;;;;26.42;24.23;;;;;;;;;;4799944;29;20290;-70
2022/11/17 10:14:43;;;;;;;23.80;21.80;;;;;;;;;;4800834;29;20572;-71
2022/11/17 10:17:11;;;;;;;23.95;21.95;;;;;;;;;;4799420;29;20050;-71
2022/11/17 10:19:39;;;;;;;24.90;22.58;;;;;;;;;;4802369;29;20073;-71
2022/11/17 10:22:06;;;;;;;30.05;27.05;;;;;;;;;;4801913;29;20062;-70
2022/11/17 10:24:34;;;;;;;26.25;23.45;;;;;;;;;;4819101;29;20042;-70
2022/11/17 10:27:02;;;;;;;25.58;23.20;;;;;;;;;;4816326;29;20046;-70
2022/11/17 10:29:30;;;;;;;27.45;24.95;;;;;;;;;;4814705;29;20500;-70
2022/11/17 10:31:58;;;;;;;33.00;29.90;;;;;;;;;;4815843;29;20157;-72
2022/11/17 10:34:43;;;;;;;24.55;22.17;;;;;;;;;;4816866;29;20046;-72
2022/11/17 10:37:16;;;;;;;25.15;23.08;;;;;;;;;;4804315;29;20059;-71
2022/11/17 10:39:44;;;;;;;25.40;23.08;;;;;;;;;;4808958;29;20507;-71
2022/11/17 10:42:20;;;;;;;58.55;36.78;;;;;;;;;;4814764;29;20047;-71
2022/11/17 10:44:51;;;;;;;27.65;24.90;;;;;;;;;;4817562;29;20069;-72
2022/11/17 10:47:34;;;;;;;51.40;32.53;;;;;;;;;;4801805;29;20054;-70
2022/11/17 10:50:28;;;;;;;29.50;25.50;;;;;;;;;;4818062;29;20055;-71
2022/11/17 10:53:15;;;;;;;28.45;23.17;;;;;;;;;;4810492;29;20051;-71
2022/11/17 10:55:43;;;;;;;24.08;21.92;;;;;;;;;;4814423;29;20590;-71
2022/11/17 10:58:27;;;;;;;36.65;29.42;;;;;;;;;;4799254;29;20054;-70
2022/11/17 11:01:02;;;;;;;29.17;26.15;;;;;;;;;;4814280;29;20046;-70
2022/11/17 11:03:31;;;;;;;28.80;25.77;;;;;;;;;;4798411;29;20730;-70
2022/11/17 11:06:00;;;;;;;30.20;26.90;;;;;;;;;;4812919;29;20061;-71
2022/11/17 11:08:30;;;;;;;33.15;29.95;;;;;;;;;;4814023;29;20057;-70
2022/11/17 11:10:58;;;;;;;35.53;31.58;;;;;;;;;;4818119;29;20058;-70
2022/11/17 11:13:30;;;;;;;34.28;31.13;;;;;;;;;;4816287;29;20575;-70
2022/11/17 11:15:58;;;;;;;31.42;28.15;;;;;;;;;;4810498;29;20420;-70
2022/11/17 11:18:27;;;;;;;32.78;29.80;;;;;;;;;;4798821;29;20042;-71
2022/11/17 11:20:58;;;;;;;33.03;30.15;;;;;;;;;;4815642;29;20042;-71
2022/11/17 11:23:34;;;;;;;43.00;39.47;;;;;;;;;;4818127;29;20081;-71
2022/11/17 11:26:16;;;;;;;28.10;25.55;;;;;;;;;;4817924;29;20047;-71
2022/11/17 11:28:47;;;;;;;26.42;24.27;;;;;;;;;;4817468;29;20058;-71
2022/11/17 11:31:26;;;;;;;32.08;29.20;;;;;;;;;;4817082;29;20186;-71
2022/11/17 11:33:58;;;;;;;34.55;30.95;;;;;;;;;;4817470;29;20606;-71
2022/11/17 11:36:26;;;;;;;;;;;;;;;;;;4818366;29;20057;-71
2022/11/17 11:39:12;;;;;;;24.08;21.83;;;;;;;;;;4817387;29;19928;-70
2022/11/17 11:41:46;;;;;;;26.25;23.85;;;;;;;;;;4817481;29;20057;-71
2022/11/17 11:44:16;;;;;;;26.60;24.55;;;;;;;;;;4817693;29;20054;-70
2022/11/17 11:46:53;;;;;;;42.78;39.40;;;;;;;;;;4800932;29;20572;-71
2022/11/17 11:49:30;;;;;;;44.42;41.05;;;;;;;;;;4817358;29;20543;-71
2022/11/17 11:51:57;;;;;;;47.00;43.72;;;;;;;;;;4817000;29;20415;-70
2022/11/17 11:54:30;;;;;;;29.85;27.70;;;;;;;;;;4819070;29;20054;-70
2022/11/17 11:56:57;;;;;;;53.85;50.10;;;;;;;;;;4820984;29;20585;-71
2022/11/17 11:59:37;;;;;;;65.53;61.17;;;;;;;;;;4820983;29;20078;-71
2022/11/17 12:02:11;;;;;;;49.30;46.03;;;;;;;;;;4805879;29;20042;-70
2022/11/17 12:04:42;;;;;;;53.95;50.40;;;;;;;;;;4821118;29;20523;-71
2022/11/17 12:07:19;;;;;;;55.47;51.90;;;;;;;;;;4820866;29;20065;-71
2022/11/17 12:09:56;;;;;;;60.83;57.03;;;;;;;;;;4821202;29;20053;-71
2022/11/17 12:12:31;;;;;;;55.47;51.95;;;;;;;;;;4808712;29;20134;-71
2022/11/17 12:15:17;;;;;;;52.55;49.20;;;;;;;;;;4802475;29;20062;-71
2022/11/17 12:17:57;;;;;;;54.28;50.92;;;;;;;;;;4802719;29;20047;-71
2022/11/17 12:20:34;;;;;;;55.42;51.95;;;;;;;;;;4789186;29;20046;-71
2022/11/17 12:23:13;;;;;;;43.35;40.38;;;;;;;;;;4812645;29;20047;-71
2022/11/17 12:25:45;;;;;;;55.65;52.13;;;;;;;;;;4802411;29;20039;-71
2022/11/17 12:28:34;;;;;;;46.83;43.92;;;;;;;;;;4817683;29;20086;-71
2022/11/17 12:31:05;;;;;;;47.55;44.47;;;;;;;;;;4819279;29;20054;-71
2022/11/17 12:33:51;;;;;;;39.03;36.38;;;;;;;;;;4820547;29;20050;-70
2022/11/17 12:36:31;;;;;;;42.95;39.97;;;;;;;;;;4820169;29;20379;-71
2022/11/17 12:38:59;;;;;;;39.00;36.15;;;;;;;;;;4820237;29;20046;-71
2022/11/17 12:41:45;;;;;;;41.53;38.88;;;;;;;;;;4816294;29;20133;-71
2022/11/17 12:44:31;;;;;;;34.03;31.73;;;;;;;;;;4818680;29;20038;-71
2022/11/17 12:47:07;;;;;;;31.30;29.00;;;;;;;;;;4819367;29;20069;-72
2022/11/17 12:49:44;;;;;;;54.20;50.67;;;;;;;;;;4800777;29;20457;-71
2022/11/17 12:52:18;;;;;;;47.50;44.35;;;;;;;;;;4797663;29;20070;-71
2022/11/17 12:55:00;;;;;;;34.60;32.20;;;;;;;;;;4810167;29;20126;-71
2022/11/17 12:57:31;;;;;;;32.78;30.45;;;;;;;;;;4822910;29;20049;-71
2022/11/17 13:00:19;;;;;;;34.63;32.22;;;;;;;;;;4821055;29;20046;-70
2022/11/17 13:02:52;;;;;;;31.08;28.90;;;;;;;;;;4815879;29;20042;-71
2022/11/17 13:05:21;;;;;;;26.60;24.73;;;;;;;;;;4819672;29;20506;-71
2022/11/17 13:07:49;;;;;;;27.08;25.27;;;;;;;;;;4803110;29;20062;-71
2022/11/17 13:10:24;;;;;;;29.75;27.67;;;;;;;;;;4819524;29;20133;-71
2022/11/17 13:13:08;;;;;;;24.98;23.23;;;;;;;;;;4819104;29;20052;-71
2022/11/17 13:15:36;;;;;;;23.52;21.63;;;;;;;;;;4819435;29;20103;-71
2022/11/17 13:18:08;;;;;;;26.48;24.65;;;;;;;;;;4820003;29;20061;-71
2022/11/17 13:20:35;;;;;;;;;;;;;;;;;;4820970;29;20069;-71
2022/11/17 13:23:05;;;;;;;17.60;16.15;;;;;;;;;;4818365;29;19929;-71
2022/11/17 13:25:33;;;;;;;21.65;19.92;;;;;;;;;;4803115;29;20070;-71
2022/11/17 13:28:01;;;;;;;23.73;21.90;;;;;;;;;;4819609;29;20129;-71
2022/11/17 13:30:32;;;;;;;24.92;22.90;;;;;;;;;;4819294;29;20058;-71
2022/11/17 13:33:01;;;;;;;24.30;22.35;;;;;;;;;;4819292;29;20409;-72
2022/11/17 13:35:28;;;;;;;27.80;25.63;;;;;;;;;;4802594;29;20066;-71
2022/11/17 13:38:05;;;;;;;45.22;42.17;;;;;;;;;;4817721;29;20052;-71
2022/11/17 13:40:33;;;;;;;28.88;26.50;;;;;;;;;;4818505;29;20052;-71
2022/11/17 13:43:02;;;;;;;31.75;29.20;;;;;;;;;;4817988;29;20046;-71
2022/11/17 13:45:29;;;;;;;46.95;43.45;;;;;;;;;;4819390;29;20062;-71
2022/11/17 13:47:58;;;;;;;27.85;25.58;;;;;;;;;;4802595;29;20134;-71
2022/11/17 13:50:25;;;;;;;36.05;33.35;;;;;;;;;;4802972;29;20459;-71
2022/11/17 13:52:52;;;;;;;28.98;26.80;;;;;;;;;;4801894;29;20054;-71
2022/11/17 13:55:21;;;;;;;41.50;38.58;;;;;;;;;;4802789;29;20042;-71
2022/11/17 13:58:05;;;;;;;32.88;30.50;;;;;;;;;;4818460;29;20523;-71
2022/11/17 14:00:33;;;;;;;27.52;25.50;;;;;;;;;;4818341;29;20533;-71
2022/11/17 14:03:04;;;;;;;28.45;26.42;;;;;;;;;;4818553;29;20136;-71
2022/11/17 14:05:32;;;;;;;29.23;26.92;;;;;;;;;;4819159;29;20043;-71
2022/11/17 14:08:20;;;;;;;34.83;32.17;;;;;;;;;;4819279;29;20544;-71
2022/11/17 14:10:48;;;;;;;32.70;30.15;;;;;;;;;;4818474;29;20077;-71
2022/11/17 14:13:19;;;;;;;40.25;37.42;;;;;;;;;;4819006;29;20057;-71
2022/11/17 14:15:51;;;;;;;40.20;37.35;;;;;;;;;;4818437;29;20511;-71
2022/11/17 14:18:23;;;;;;;34.97;32.42;;;;;;;;;;4786945;29;20149;-70
2022/11/17 14:21:03;;;;;;;50.60;46.75;;;;;;;;;;4818339;29;20058;-71
2022/11/17 14:23:30;;;;;;;41.00;37.92;;;;;;;;;;4818792;29;20047;-71
2022/11/17 14:25:57;;;;;;;53.67;49.42;;;;;;;;;;4801399;29;20415;-71
2022/11/17 14:28:25;;;;;;;45.92;42.05;;;;;;;;;;4802092;29;20058;-71
2022/11/17 14:30:54;;;;;;;37.67;34.97;;;;;;;;;;4801776;29;20069;-71
2022/11/17 14:33:21;;;;;;;38.78;35.83;;;;;;;;;;4818645;29;20133;-71
2022/11/17 14:35:50;;;;;;;37.45;34.75;;;;;;;;;;4818393;29;20066;-71
2022/11/17 14:38:19;;;;;;;46.50;43.25;;;;;;;;;;4817152;29;20133;-71
2022/11/17 14:40:48;;;;;;;32.63;30.38;;;;;;;;;;4817416;29;20479;-71
2022/11/17 14:43:15;;;;;;;32.20;29.85;;;;;;;;;;4818287;29;20057;-71
2022/11/17 14:45:42;;;;;;;35.83;33.30;;;;;;;;;;4817832;29;20078;-71
2022/11/17 14:48:10;;;;;;;41.42;38.42;;;;;;;;;;4817966;29;20065;-71
2022/11/17 14:50:44;;;;;;;31.70;29.27;;;;;;;;;;4818220;29;20066;-71
2022/11/17 14:53:12;;;;;;;31.80;29.50;;;;;;;;;;4785404;29;20164;-71
2022/11/17 14:55:39;;;;;;;29.65;27.45;;;;;;;;;;4801402;29;20066;-71
2022/11/17 14:58:08;;;;;;;31.92;29.60;;;;;;;;;;4801281;29;20050;-71
2022/11/17 15:00:36;;;;;;;26.92;24.58;;;;;;;;;;4840545;24;20057;-75
2022/11/17 15:03:03;;;;;;;37.20;34.55;;;;;;;;;;4818305;29;20099;-75
2022/11/17 15:05:31;;;;;;;31.35;28.90;;;;;;;;;;4819032;29;20053;-75
2022/11/17 15:07:58;;;;;;;29.15;26.92;;;;;;;;;;4802620;29;20038;-75
2022/11/17 15:10:26;;;;;;;34.97;31.63;;;;;;;;;;4820027;29;20054;-75
2022/11/17 15:12:54;;;;;;;31.10;28.75;;;;;;;;;;4802825;29;20057;-76
2022/11/17 15:15:21;;;;;;;32.88;30.48;;;;;;;;;;4819490;29;20127;-76
2022/11/17 15:17:49;;;;;;;24.55;22.55;;;;;;;;;;4819699;29;20142;-75
2022/11/17 15:20:16;;;;;;;27.05;24.95;;;;;;;;;;4788723;29;20118;-76
2022/11/17 15:22:44;;;;;;;29.00;26.67;;;;;;;;;;4819826;29;20890;-75
2022/11/17 15:25:11;;;;;;;29.25;26.77;;;;;;;;;;4801414;29;20046;-76
2022/11/17 15:27:39;;;;;;;29.33;26.98;;;;;;;;;;4803652;29;20038;-74
2022/11/17 15:30:07;;;;;;;24.80;22.50;;;;;;;;;;4836364;29;20060;-75
2022/11/17 15:32:35;;;;;;;25.15;23.13;;;;;;;;;;4819838;29;20053;-75
2022/11/17 15:35:05;;;;;;;25.98;23.60;;;;;;;;;;4816501;29;20532;-74
2022/11/17 15:37:33;;;;;;;28.80;26.33;;;;;;;;;;4802267;29;20107;-74
2022/11/17 15:40:00;;;;;;;27.40;24.98;;;;;;;;;;4819032;29;20048;-75
2022/11/17 15:42:27;;;;;;;27.02;24.50;;;;;;;;;;4809829;29;20047;-74
2022/11/17 15:44:55;;;;;;;26.35;23.73;;;;;;;;;;4790056;29;20432;-74